createdAt,value
2023-08-21T00:00:23.284Z,72.51
2023-08-21T00:01:23.296Z,66.31
2023-08-21T00:02:23.279Z,71.89
2023-08-21T00:03:23.296Z,73.53
2023-08-21T00:04:23.209Z,72.35
2023-08-21T00:05:23.226Z,68.07
2023-08-21T00:06:23.233Z,70.34
2023-08-21T00:07:23.152Z,69.52
2023-08-21T00:08:23.140Z,72.37
2023-08-21T00:09:23.116Z,70.46
2023-08-21T00:10:23.138Z,70.26
2023-08-21T00:11:23.084Z,72.31
2023-08-21T00:12:23.061Z,73.18
2023-08-21T00:13:23.041Z,70.58
2023-08-21T00:14:23.067Z,71.21
2023-08-21T00:15:23.032Z,73.07
2023-08-21T00:16:23.064Z,68.64
2023-08-21T00:17:22.962Z,73.16
2023-08-21T00:18:22.950Z,73.90
2023-08-21T00:19:22.932Z,73.24
2023-08-21T00:20:22.936Z,71.95
2023-08-21T00:21:22.889Z,69.54
2023-08-21T00:22:22.876Z,70.85
2023-08-21T00:23:22.856Z,71.11
2023-08-21T00:24:22.836Z,68.49
2023-08-21T00:25:22.854Z,70.48
2023-08-21T00:26:22.796Z,69.27
2023-08-21T00:27:22.775Z,70.60
2023-08-21T00:28:22.788Z,72.43
2023-08-21T00:29:22.778Z,69.08
2023-08-21T00:30:22.775Z,66.86
2023-08-21T00:31:22.711Z,72.48
2023-08-21T00:32:22.693Z,69.86
2023-08-21T00:33:22.681Z,71.93
2023-08-21T00:34:22.677Z,72.86
2023-08-21T00:35:22.620Z,74.45
2023-08-21T00:36:22.601Z,69.68
2023-08-21T00:37:22.583Z,71.28
2023-08-21T00:38:22.569Z,69.35
2023-08-21T00:39:22.574Z,68.56
2023-08-21T00:40:22.541Z,67.67
2023-08-21T00:41:22.512Z,69.36
2023-08-21T00:42:22.492Z,70.05
2023-08-21T00:43:22.499Z,70.14
2023-08-21T00:44:22.481Z,71.76
2023-08-21T00:45:22.434Z,71.68
2023-08-21T00:46:22.443Z,68.92
2023-08-21T00:47:22.407Z,74.25
2023-08-21T00:48:22.400Z,72.68
2023-08-21T00:49:22.357Z,73.03
2023-08-21T00:50:22.342Z,69.39
2023-08-21T00:51:22.324Z,67.82
2023-08-21T00:52:22.307Z,73.16
2023-08-21T00:53:22.316Z,72.74
2023-08-21T00:54:22.265Z,71.12
2023-08-21T00:55:22.246Z,72.67
2023-08-21T00:56:22.231Z,73.15
2023-08-21T00:57:22.241Z,72.33
2023-08-21T00:58:22.233Z,70.07
2023-08-21T00:59:22.181Z,72.30
2023-08-21T01:00:22.157Z,72.63
2023-08-21T01:01:22.167Z,68.61
2023-08-21T01:02:22.158Z,68.14
2023-08-21T01:03:22.147Z,71.02
2023-08-21T01:04:22.104Z,69.56
2023-08-21T01:05:22.082Z,69.96
2023-08-21T01:06:22.032Z,69.61
2023-08-21T01:07:22.044Z,68.53
2023-08-21T01:08:21.999Z,70.66
2023-08-21T01:09:21.981Z,70.73
2023-08-21T01:10:21.960Z,70.21
2023-08-21T01:11:21.967Z,72.92
2023-08-21T01:12:21.952Z,73.45
2023-08-21T01:13:21.905Z,74.41
2023-08-21T01:14:21.887Z,71.44
2023-08-21T01:15:21.870Z,70.96
2023-08-21T01:16:21.912Z,72.55
2023-08-21T01:17:21.847Z,72.70
2023-08-21T01:18:21.821Z,72.85
2023-08-21T01:19:21.804Z,72.86
2023-08-21T01:20:21.811Z,72.48
2023-08-21T01:21:21.798Z,71.44
2023-08-21T01:22:21.742Z,71.46
2023-08-21T01:23:21.735Z,67.54
2023-08-21T01:24:21.721Z,71.56
2023-08-21T01:25:21.713Z,67.49
2023-08-21T01:26:21.695Z,68.36
2023-08-21T01:27:21.643Z,68.54
2023-08-21T01:28:21.626Z,70.10
2023-08-21T01:29:21.614Z,70.24
2023-08-21T01:30:21.624Z,66.76
2023-08-21T01:31:21.634Z,72.64
2023-08-21T01:32:21.552Z,69.04
2023-08-21T01:33:21.536Z,69.81
2023-08-21T01:34:21.520Z,71.85
2023-08-21T01:35:21.525Z,71.08
2023-08-21T01:36:21.484Z,73.89
2023-08-21T01:37:21.466Z,72.31
2023-08-21T01:38:21.457Z,71.59
2023-08-21T01:39:21.463Z,72.89
2023-08-21T01:40:21.473Z,69.99
2023-08-21T01:41:21.398Z,73.62
2023-08-21T01:42:21.371Z,74.14
2023-08-21T01:43:21.349Z,73.55
2023-08-21T01:44:21.363Z,73.18
2023-08-21T01:45:21.319Z,71.91
2023-08-21T01:46:21.388Z,71.58
2023-08-21T01:47:21.271Z,71.26
2023-08-21T01:48:21.270Z,70.06
2023-08-21T01:49:21.292Z,74.21
2023-08-21T01:50:21.222Z,72.58
2023-08-21T01:51:21.217Z,72.97
2023-08-21T01:52:21.195Z,71.20
2023-08-21T01:53:21.189Z,73.98
2023-08-21T01:54:21.171Z,72.96
2023-08-21T01:55:21.123Z,71.62
2023-08-21T01:56:21.107Z,72.96
2023-08-21T01:57:21.116Z,73.69
2023-08-21T01:58:21.094Z,73.01
2023-08-21T01:59:21.048Z,73.77
2023-08-21T02:00:21.059Z,73.31
2023-08-21T02:01:21.031Z,74.20
2023-08-21T02:02:21.037Z,72.75
2023-08-21T02:03:21.116Z,72.77
2023-08-21T02:04:20.952Z,73.72
2023-08-21T02:05:20.935Z,71.92
2023-08-21T02:06:20.911Z,71.00
2023-08-21T02:07:20.926Z,74.48
2023-08-21T02:08:20.902Z,75.14
2023-08-21T02:09:20.851Z,72.08
2023-08-21T02:10:20.851Z,73.11
2023-08-21T02:11:20.820Z,73.31
2023-08-21T02:12:20.824Z,71.43
2023-08-21T02:13:20.789Z,71.63
2023-08-21T02:14:20.766Z,75.25
2023-08-21T02:15:20.735Z,73.94
2023-08-21T02:16:20.722Z,72.86
2023-08-21T02:17:20.729Z,72.70
2023-08-21T02:18:20.707Z,72.88
2023-08-21T02:19:20.671Z,73.02
2023-08-21T02:20:20.649Z,74.69
2023-08-21T02:21:20.666Z,74.88
2023-08-21T02:22:20.640Z,74.38
2023-08-21T02:23:20.587Z,75.15
2023-08-21T02:24:20.580Z,73.28
2023-08-21T02:25:20.554Z,75.44
2023-08-21T02:26:20.571Z,74.23
2023-08-21T02:27:20.556Z,74.45
2023-08-21T02:28:20.494Z,73.48
2023-08-21T02:29:20.476Z,72.06
2023-08-21T02:30:20.459Z,73.41
2023-08-21T02:31:20.496Z,74.58
2023-08-21T02:32:20.418Z,72.41
2023-08-21T02:33:20.440Z,73.19
2023-08-21T02:34:20.380Z,76.19
2023-08-21T02:35:20.390Z,74.01
2023-08-21T02:36:20.381Z,75.19
2023-08-21T02:37:20.327Z,73.39
2023-08-21T02:38:20.300Z,73.69
2023-08-21T02:39:20.289Z,73.12
2023-08-21T02:40:20.306Z,74.16
2023-08-21T02:41:20.255Z,74.43
2023-08-21T02:42:20.223Z,74.31
2023-08-21T02:43:20.210Z,72.89
2023-08-21T02:44:20.222Z,74.18
2023-08-21T02:45:20.240Z,75.29
2023-08-21T02:46:20.214Z,74.33
2023-08-21T02:47:20.152Z,74.05
2023-08-21T02:48:20.175Z,73.95
2023-08-21T02:49:20.136Z,75.21
2023-08-21T02:50:20.109Z,74.93
2023-08-21T02:51:20.111Z,75.12
2023-08-21T02:52:20.038Z,73.39
2023-08-21T02:53:20.015Z,75.93
2023-08-21T02:54:20.004Z,75.44
2023-08-21T02:55:20.008Z,73.79
2023-08-21T02:56:19.970Z,73.82
2023-08-21T02:57:19.944Z,74.77
2023-08-21T02:58:19.918Z,71.55
2023-08-21T02:59:19.938Z,74.92
2023-08-21T03:00:19.884Z,76.41
2023-08-21T03:01:19.919Z,72.96
2023-08-21T03:02:19.886Z,74.26
2023-08-21T03:03:19.941Z,72.31
2023-08-21T03:04:19.833Z,75.57
2023-08-21T03:05:19.803Z,74.60
2023-08-21T03:06:19.791Z,73.20
2023-08-21T03:07:19.766Z,74.03
2023-08-21T03:08:19.776Z,73.93
2023-08-21T03:09:19.720Z,75.10
2023-08-21T03:10:19.761Z,72.72
2023-08-21T03:11:19.676Z,74.18
2023-08-21T03:12:19.657Z,74.54
2023-08-21T03:13:20.615Z,71.04
2023-08-21T03:14:20.641Z,68.54
2023-08-21T03:15:19.589Z,72.86
2023-08-21T03:16:19.632Z,71.36
2023-08-21T03:17:19.584Z,71.92
2023-08-21T03:18:19.626Z,71.87
2023-08-21T03:19:19.515Z,72.37
2023-08-21T03:20:19.501Z,72.49
2023-08-21T03:21:19.474Z,73.23
2023-08-21T03:22:19.483Z,74.69
2023-08-21T03:23:19.442Z,74.50
2023-08-21T03:24:19.417Z,72.86
2023-08-21T03:25:19.398Z,73.67
2023-08-21T03:26:19.384Z,71.91
2023-08-21T03:27:19.387Z,73.93
2023-08-21T03:28:19.339Z,74.61
2023-08-21T03:29:19.319Z,72.37
2023-08-21T03:30:19.294Z,75.22
2023-08-21T03:31:19.348Z,74.59
2023-08-21T03:32:19.291Z,73.58
2023-08-21T03:33:19.307Z,74.42
2023-08-21T03:34:19.221Z,74.52
2023-08-21T03:35:19.231Z,74.75
2023-08-21T03:36:19.183Z,75.06
2023-08-21T03:37:19.222Z,73.83
2023-08-21T03:38:19.142Z,72.93
2023-08-21T03:39:19.137Z,74.92
2023-08-21T03:40:19.106Z,75.32
2023-08-21T03:41:19.116Z,76.46
2023-08-21T03:42:19.071Z,74.54
2023-08-21T03:43:19.050Z,73.34
2023-08-21T03:44:19.027Z,75.63
2023-08-21T03:45:19.039Z,75.69
2023-08-21T03:46:19.143Z,76.44
2023-08-21T03:47:18.972Z,75.37
2023-08-21T03:48:18.956Z,76.95
2023-08-21T03:49:20.845Z,77.40
2023-08-21T03:50:19.943Z,75.67
2023-08-21T03:51:18.893Z,74.40
2023-08-21T03:52:18.878Z,75.10
2023-08-21T03:53:18.855Z,76.38
2023-08-21T03:54:18.846Z,74.80
2023-08-21T03:55:18.834Z,76.98
2023-08-21T03:56:18.788Z,76.56
2023-08-21T03:57:19.773Z,74.33
2023-08-21T03:58:18.758Z,73.12
2023-08-21T03:59:18.772Z,75.47
2023-08-21T04:00:18.746Z,76.36
2023-08-21T04:01:18.727Z,76.76
2023-08-21T04:02:18.675Z,76.89
2023-08-21T04:03:18.702Z,73.09
2023-08-21T04:04:18.698Z,74.95
2023-08-21T04:05:18.627Z,75.62
2023-08-21T04:06:18.596Z,74.40
2023-08-21T04:07:18.582Z,75.08
2023-08-21T04:08:18.587Z,76.74
2023-08-21T04:09:18.569Z,76.58
2023-08-21T04:10:18.517Z,75.95
2023-08-21T04:11:18.497Z,76.92
2023-08-21T04:12:18.481Z,75.31
2023-08-21T04:13:18.487Z,76.91
2023-08-21T04:14:18.441Z,77.01
2023-08-21T04:15:18.412Z,76.42
2023-08-21T04:16:18.485Z,76.14
2023-08-21T04:17:18.377Z,77.43
2023-08-21T04:18:30.320Z,76.31
2023-08-21T04:19:20.336Z,76.72
2023-08-21T04:20:18.328Z,75.06
2023-08-21T04:21:18.296Z,76.82
2023-08-21T04:22:18.345Z,76.07
2023-08-21T04:23:18.285Z,77.71
2023-08-21T04:24:18.241Z,77.36
2023-08-21T04:25:18.218Z,75.98
2023-08-21T04:26:18.201Z,75.03
2023-08-21T04:27:18.212Z,74.65
2023-08-21T04:28:18.191Z,75.00
2023-08-21T04:29:18.151Z,74.51
2023-08-21T04:30:18.125Z,75.12
2023-08-21T04:31:18.163Z,74.89
2023-08-21T04:32:18.133Z,74.66
2023-08-21T04:33:18.063Z,75.68
2023-08-21T04:34:18.047Z,75.84
2023-08-21T04:35:18.036Z,75.77
2023-08-21T04:36:18.005Z,76.35
2023-08-21T04:37:18.014Z,75.19
2023-08-21T04:38:17.967Z,74.90
2023-08-21T04:39:17.989Z,73.91
2023-08-21T04:40:17.928Z,76.24
2023-08-21T04:41:17.938Z,76.07
2023-08-21T04:42:17.915Z,74.22
2023-08-21T04:43:17.866Z,74.61
2023-08-21T04:44:17.852Z,75.52
2023-08-21T04:45:17.848Z,73.92
2023-08-21T04:46:17.861Z,73.85
2023-08-21T04:47:17.797Z,74.09
2023-08-21T04:48:17.777Z,74.34
2023-08-21T04:49:17.756Z,73.10
2023-08-21T04:50:17.750Z,74.12
2023-08-21T04:51:17.746Z,74.01
2023-08-21T04:52:17.703Z,74.81
2023-08-21T04:53:17.685Z,74.94
2023-08-21T04:54:17.661Z,73.72
2023-08-21T04:55:17.681Z,73.70
2023-08-21T04:56:17.654Z,73.95
2023-08-21T04:57:17.601Z,74.53
2023-08-21T04:58:17.576Z,74.15
2023-08-21T04:59:18.575Z,74.24
2023-08-21T05:00:17.597Z,71.32
2023-08-21T05:01:17.588Z,74.03
2023-08-21T05:02:17.517Z,73.80
2023-08-21T05:03:17.579Z,70.75
2023-08-21T05:04:17.526Z,71.46
2023-08-21T05:05:17.492Z,73.57
2023-08-21T05:06:17.430Z,74.38
2023-08-21T05:07:18.416Z,72.45
2023-08-21T05:08:17.397Z,73.30
2023-08-21T05:09:17.419Z,73.64
2023-08-21T05:10:17.400Z,72.60
2023-08-21T05:11:17.351Z,71.70
2023-08-21T05:12:17.330Z,73.67
2023-08-21T05:13:17.313Z,72.84
2023-08-21T05:14:17.325Z,71.44
2023-08-21T05:15:17.300Z,71.05
2023-08-21T05:16:17.288Z,71.32
2023-08-21T05:17:17.248Z,72.15
2023-08-21T05:18:17.254Z,72.45
2023-08-21T05:19:17.231Z,72.06
2023-08-21T05:20:17.186Z,71.27
2023-08-21T05:21:17.168Z,71.68
2023-08-21T05:22:17.155Z,72.46
2023-08-21T05:23:17.155Z,70.47
2023-08-21T05:24:17.146Z,72.84
2023-08-21T05:25:17.098Z,72.43
2023-08-21T05:26:17.079Z,72.32
2023-08-21T05:27:17.059Z,73.14
2023-08-21T05:28:17.078Z,71.98
2023-08-21T05:29:17.058Z,73.17
2023-08-21T05:30:17.016Z,73.94
2023-08-21T05:31:16.988Z,72.44
2023-08-21T05:32:16.973Z,72.34
2023-08-21T05:33:16.984Z,75.20
2023-08-21T05:34:16.938Z,73.33
2023-08-21T05:35:16.914Z,73.07
2023-08-21T05:36:16.900Z,72.95
2023-08-21T05:37:16.901Z,74.52
2023-08-21T05:38:16.882Z,74.44
2023-08-21T05:39:16.842Z,73.83
2023-08-21T05:40:16.819Z,73.99
2023-08-21T05:41:16.861Z,74.24
2023-08-21T05:42:16.821Z,73.11
2023-08-21T05:43:16.764Z,71.63
2023-08-21T05:44:16.750Z,73.60
2023-08-21T05:45:16.721Z,71.82
2023-08-21T05:46:16.715Z,73.54
2023-08-21T05:47:16.716Z,74.10
2023-08-21T05:48:16.676Z,72.53
2023-08-21T05:49:16.659Z,72.32
2023-08-21T05:50:16.627Z,73.12
2023-08-21T05:51:16.672Z,71.29
2023-08-21T05:52:16.628Z,70.00
2023-08-21T05:53:16.599Z,71.56
2023-08-21T05:54:16.569Z,72.93
2023-08-21T05:55:16.548Z,71.11
2023-08-21T05:56:16.568Z,71.39
2023-08-21T05:57:16.515Z,71.21
2023-08-21T05:58:16.512Z,72.58
2023-08-21T05:59:16.479Z,72.68
2023-08-21T06:00:16.490Z,72.14
2023-08-21T06:01:16.510Z,71.56
2023-08-21T06:02:16.433Z,72.66
2023-08-21T06:03:16.514Z,71.09
2023-08-21T06:04:16.467Z,71.67
2023-08-21T06:05:16.406Z,71.90
2023-08-21T06:06:16.362Z,72.53
2023-08-21T06:07:16.354Z,71.03
2023-08-21T06:08:16.325Z,70.80
2023-08-21T06:09:16.311Z,72.30
2023-08-21T06:10:16.326Z,72.97
2023-08-21T06:11:16.275Z,72.40
2023-08-21T06:12:16.254Z,72.12
2023-08-21T06:13:16.239Z,73.16
2023-08-21T06:14:16.223Z,71.81
2023-08-21T06:15:16.233Z,71.55
2023-08-21T06:16:16.212Z,70.96
2023-08-21T06:17:16.190Z,72.62
2023-08-21T06:18:16.173Z,71.68
2023-08-21T06:19:16.173Z,71.05
2023-08-21T06:20:16.144Z,72.11
2023-08-21T06:21:16.133Z,70.77
2023-08-21T06:22:16.102Z,72.58
2023-08-21T06:23:16.075Z,72.50
2023-08-21T06:24:16.080Z,72.81
2023-08-21T06:25:16.043Z,72.05
2023-08-21T06:26:16.026Z,72.82
2023-08-21T06:27:16.012Z,71.35
2023-08-21T06:28:15.991Z,69.92
2023-08-21T06:29:16.005Z,71.01
2023-08-21T06:30:15.961Z,72.02
2023-08-21T06:31:15.996Z,70.95
2023-08-21T06:32:15.935Z,71.67
2023-08-21T06:33:15.976Z,70.47
2023-08-21T06:34:15.944Z,70.01
2023-08-21T06:35:15.886Z,70.56
2023-08-21T06:36:15.884Z,71.43
2023-08-21T06:37:15.849Z,69.54
2023-08-21T06:38:15.865Z,70.93
2023-08-21T06:39:15.823Z,71.17
2023-08-21T06:40:15.814Z,71.83
2023-08-21T06:41:15.793Z,71.29
2023-08-21T06:42:15.776Z,71.38
2023-08-21T06:43:15.792Z,70.89
2023-08-21T06:44:15.748Z,71.90
2023-08-21T06:45:15.729Z,71.42
2023-08-21T06:46:15.762Z,71.03
2023-08-21T06:47:15.725Z,71.34
2023-08-21T06:48:15.702Z,71.15
2023-08-21T06:49:15.660Z,72.04
2023-08-21T06:50:15.654Z,71.67
2023-08-21T06:51:17.595Z,70.19
2023-08-21T06:52:16.639Z,69.72
2023-08-21T06:53:15.665Z,69.96
2023-08-21T06:54:15.579Z,72.01
2023-08-21T06:55:15.569Z,72.37
2023-08-21T06:56:15.539Z,70.64
2023-08-21T06:57:15.580Z,71.86
2023-08-21T06:58:15.517Z,71.51
2023-08-21T06:59:15.497Z,70.62
2023-08-21T07:00:15.513Z,70.15
2023-08-21T07:01:15.528Z,70.04
2023-08-21T07:02:15.480Z,71.98
2023-08-21T07:03:15.557Z,70.66
2023-08-21T07:04:15.462Z,71.78
2023-08-21T07:05:15.417Z,71.71
2023-08-21T07:06:15.406Z,71.44
2023-08-21T07:07:15.358Z,71.05
2023-08-21T07:08:15.383Z,70.23
2023-08-21T07:09:15.328Z,71.66
2023-08-21T07:10:15.315Z,70.13
2023-08-21T07:11:16.950Z,69.20
2023-08-21T07:12:16.288Z,70.46
2023-08-21T07:13:15.282Z,71.59
2023-08-21T07:14:15.256Z,71.79
2023-08-21T07:15:15.262Z,71.82
2023-08-21T07:16:15.338Z,69.23
2023-08-21T07:17:15.200Z,67.85
2023-08-21T07:18:15.375Z,70.67
2023-08-21T07:19:15.174Z,72.33
2023-08-21T07:20:15.184Z,71.01
2023-08-21T07:21:30.959Z,74.18
2023-08-21T07:22:17.151Z,72.58
2023-08-21T07:23:15.107Z,72.03
2023-08-21T07:24:15.111Z,73.54
2023-08-21T07:25:15.121Z,72.55
2023-08-21T07:26:15.076Z,72.14
2023-08-21T07:27:15.047Z,74.42
2023-08-21T07:28:15.029Z,73.17
2023-08-21T07:29:15.037Z,71.50
2023-08-21T07:30:15.019Z,70.70
2023-08-21T07:31:15.031Z,73.15
2023-08-21T07:32:15.013Z,73.65
2023-08-21T07:33:14.949Z,74.59
2023-08-21T07:34:14.953Z,73.19
2023-08-21T07:35:14.908Z,74.97
2023-08-21T07:36:15.126Z,73.66
2023-08-21T07:37:15.868Z,73.05
2023-08-21T07:38:14.855Z,73.69
2023-08-21T07:39:14.863Z,73.71
2023-08-21T07:40:14.825Z,72.88
2023-08-21T07:41:14.815Z,72.78
2023-08-21T07:42:14.781Z,73.44
2023-08-21T07:43:14.790Z,74.14
2023-08-21T07:44:14.777Z,72.04
2023-08-21T07:45:14.783Z,71.58
2023-08-21T07:46:14.895Z,72.15
2023-08-21T07:47:14.705Z,73.58
2023-08-21T07:48:15.258Z,71.22
2023-08-21T07:49:15.661Z,70.47
2023-08-21T07:50:14.638Z,72.35
2023-08-21T07:51:14.625Z,71.65
2023-08-21T07:52:14.608Z,70.85
2023-08-21T07:53:14.622Z,72.25
2023-08-21T07:54:14.573Z,71.99
2023-08-21T07:55:14.559Z,71.51
2023-08-21T07:56:14.613Z,71.86
2023-08-21T07:57:14.550Z,68.91
2023-08-21T07:58:14.530Z,70.45
2023-08-21T07:59:14.486Z,70.31
2023-08-21T08:00:14.472Z,70.35
2023-08-21T08:01:14.465Z,72.25
2023-08-21T08:02:14.462Z,70.20
2023-08-21T08:03:14.458Z,69.47
2023-08-21T08:04:14.451Z,70.64
2023-08-21T08:05:14.391Z,70.05
2023-08-21T08:06:14.375Z,69.94
2023-08-21T08:07:14.408Z,70.21
2023-08-21T08:08:14.345Z,71.42
2023-08-21T08:09:14.325Z,71.04
2023-08-21T08:10:14.316Z,70.48
2023-08-21T08:11:14.323Z,71.58
2023-08-21T08:12:14.307Z,69.62
2023-08-21T08:13:14.266Z,69.56
2023-08-21T08:14:14.241Z,70.17
2023-08-21T08:15:15.228Z,68.19
2023-08-21T08:16:14.277Z,70.38
2023-08-21T08:17:14.200Z,70.50
2023-08-21T08:18:14.188Z,72.15
2023-08-21T08:19:14.169Z,69.12
2023-08-21T08:20:14.181Z,69.70
2023-08-21T08:21:14.169Z,68.50
2023-08-21T08:22:14.113Z,71.66
2023-08-21T08:23:14.123Z,69.73
2023-08-21T08:24:14.079Z,70.98
2023-08-21T08:25:14.069Z,68.19
2023-08-21T08:26:14.063Z,71.14
2023-08-21T08:27:14.031Z,69.51
2023-08-21T08:28:14.038Z,69.92
2023-08-21T08:29:14.001Z,70.33
2023-08-21T08:30:14.019Z,70.16
2023-08-21T08:31:14.002Z,69.17
2023-08-21T08:32:13.948Z,70.84
2023-08-21T08:33:13.953Z,72.13
2023-08-21T08:34:13.954Z,71.46
2023-08-21T08:35:13.932Z,71.62
2023-08-21T08:36:13.892Z,67.93
2023-08-21T08:37:13.873Z,70.70
2023-08-21T08:38:13.871Z,71.22
2023-08-21T08:39:13.876Z,72.06
2023-08-21T08:40:13.833Z,72.41
2023-08-21T08:41:13.835Z,70.27
2023-08-21T08:42:13.788Z,72.21
2023-08-21T08:43:13.794Z,72.07
2023-08-21T08:44:13.791Z,72.46
2023-08-21T08:45:13.765Z,72.74
2023-08-21T08:46:13.792Z,73.60
2023-08-21T08:47:13.710Z,71.85
2023-08-21T08:48:13.781Z,72.19
2023-08-21T08:49:13.679Z,69.76
2023-08-21T08:50:13.659Z,71.09
2023-08-21T08:51:13.643Z,70.30
2023-08-21T08:52:13.657Z,71.30
2023-08-21T08:53:16.779Z,70.96
2023-08-21T08:54:14.594Z,70.77
2023-08-21T08:55:13.580Z,71.12
2023-08-21T08:56:13.563Z,70.55
2023-08-21T08:57:13.552Z,72.46
2023-08-21T08:58:13.565Z,72.46
2023-08-21T08:59:13.514Z,70.85
2023-08-21T09:00:13.497Z,71.39
2023-08-21T09:01:13.501Z,70.17
2023-08-21T09:02:13.501Z,73.37
2023-08-21T09:03:13.640Z,70.62
2023-08-21T09:04:13.445Z,69.27
2023-08-21T09:05:13.413Z,70.86
2023-08-21T09:06:13.432Z,70.17
2023-08-21T09:07:13.386Z,71.06
2023-08-21T09:08:13.365Z,70.88
2023-08-21T09:09:13.351Z,70.40
2023-08-21T09:10:13.370Z,69.89
2023-08-21T09:11:13.349Z,70.59
2023-08-21T09:12:13.345Z,70.72
2023-08-21T09:13:13.280Z,71.34
2023-08-21T09:14:13.289Z,71.76
2023-08-21T09:15:13.252Z,72.49
2023-08-21T09:16:13.320Z,71.70
2023-08-21T09:17:13.222Z,73.50
2023-08-21T09:18:13.213Z,71.19
2023-08-21T09:19:13.192Z,69.32
2023-08-21T09:20:13.168Z,71.37
2023-08-21T09:21:14.192Z,69.90
2023-08-21T09:22:13.150Z,71.43
2023-08-21T09:23:13.124Z,72.50
2023-08-21T09:24:13.107Z,72.55
2023-08-21T09:25:13.113Z,72.06
2023-08-21T09:26:13.096Z,72.29
2023-08-21T09:27:13.048Z,71.81
2023-08-21T09:28:13.032Z,72.99
2023-08-21T09:29:13.013Z,72.37
2023-08-21T09:30:13.069Z,72.38
2023-08-21T09:31:13.011Z,70.64
2023-08-21T09:32:12.980Z,71.89
2023-08-21T09:33:12.945Z,71.37
2023-08-21T09:34:12.940Z,70.23
2023-08-21T09:35:12.940Z,71.31
2023-08-21T09:36:12.893Z,72.55
2023-08-21T09:37:12.917Z,71.69
2023-08-21T09:38:12.861Z,70.88
2023-08-21T09:39:12.873Z,71.67
2023-08-21T09:40:12.859Z,70.21
2023-08-21T09:41:12.820Z,72.29
2023-08-21T09:42:12.805Z,71.61
2023-08-21T09:43:12.779Z,71.03
2023-08-21T09:44:12.789Z,70.74
2023-08-21T09:45:12.733Z,70.95
2023-08-21T09:46:12.756Z,72.38
2023-08-21T09:47:12.734Z,71.91
2023-08-21T09:48:12.748Z,70.83
2023-08-21T09:49:12.729Z,70.51
2023-08-21T09:50:12.658Z,69.65
2023-08-21T09:51:12.634Z,70.19
2023-08-21T09:52:12.620Z,70.65
2023-08-21T09:53:12.629Z,71.74
2023-08-21T09:54:12.607Z,69.27
2023-08-21T09:55:12.565Z,71.17
2023-08-21T09:56:12.555Z,70.60
2023-08-21T09:57:12.531Z,71.65
2023-08-21T09:58:12.565Z,71.71
2023-08-21T09:59:12.525Z,69.94
2023-08-21T10:00:12.480Z,71.56
2023-08-21T10:01:12.497Z,70.96
2023-08-21T10:02:12.447Z,72.25
2023-08-21T10:03:12.518Z,70.14
2023-08-21T10:04:12.443Z,70.52
2023-08-21T10:05:12.399Z,73.01
2023-08-21T10:06:12.381Z,71.41
2023-08-21T10:07:12.411Z,69.01
2023-08-21T10:08:12.374Z,70.99
2023-08-21T10:09:12.332Z,70.85
2023-08-21T10:10:12.315Z,71.29
2023-08-21T10:11:12.294Z,71.41
2023-08-21T10:12:12.311Z,71.09
2023-08-21T10:13:12.257Z,70.74
2023-08-21T10:14:12.243Z,71.12
2023-08-21T10:15:12.219Z,70.85
2023-08-21T10:16:12.885Z,70.32
2023-08-21T10:17:13.211Z,71.64
2023-08-21T10:18:12.197Z,69.82
2023-08-21T10:19:12.201Z,70.73
2023-08-21T10:20:12.137Z,71.34
2023-08-21T10:21:12.149Z,71.49
2023-08-21T10:22:12.125Z,68.32
2023-08-21T10:23:12.078Z,69.33
2023-08-21T10:24:12.061Z,69.77
2023-08-21T10:25:12.066Z,69.89
2023-08-21T10:26:12.054Z,69.50
2023-08-21T10:27:12.010Z,70.32
2023-08-21T10:28:12.010Z,70.67
2023-08-21T10:29:11.976Z,70.01
2023-08-21T10:30:11.961Z,69.46
2023-08-21T10:31:12.006Z,72.66
2023-08-21T10:32:11.925Z,70.81
2023-08-21T10:33:11.937Z,72.13
2023-08-21T10:34:11.917Z,71.05
2023-08-21T10:35:11.886Z,70.09
2023-08-21T10:36:11.869Z,69.42
2023-08-21T10:37:11.848Z,72.52
2023-08-21T10:38:11.814Z,71.63
2023-08-21T10:39:11.793Z,72.07
2023-08-21T10:40:11.813Z,72.55
2023-08-21T10:41:11.767Z,73.15
2023-08-21T10:42:11.748Z,72.66
2023-08-21T10:43:11.723Z,71.36
2023-08-21T10:44:11.706Z,71.75
2023-08-21T10:45:11.708Z,73.05
2023-08-21T10:46:12.739Z,73.09
2023-08-21T10:47:11.654Z,72.94
2023-08-21T10:48:11.804Z,73.92
2023-08-21T10:49:11.645Z,73.51
2023-08-21T10:50:11.705Z,73.36
2023-08-21T10:51:11.610Z,73.91
2023-08-21T10:52:11.595Z,73.28
2023-08-21T10:53:11.659Z,71.66
2023-08-21T10:54:11.630Z,70.27
2023-08-21T10:55:11.525Z,73.43
2023-08-21T10:56:11.498Z,72.85
2023-08-21T10:57:11.473Z,73.97
2023-08-21T10:58:11.452Z,73.10
2023-08-21T10:59:11.468Z,72.10
2023-08-21T11:00:11.417Z,72.03
2023-08-21T11:01:11.407Z,72.69
2023-08-21T11:02:11.418Z,73.27
2023-08-21T11:03:11.416Z,73.46
2023-08-21T11:04:11.381Z,72.01
2023-08-21T11:05:11.401Z,72.47
2023-08-21T11:06:11.372Z,73.56
2023-08-21T11:07:11.328Z,72.76
2023-08-21T11:08:11.305Z,71.30
2023-08-21T11:09:11.263Z,72.20
2023-08-21T11:10:12.469Z,72.71
2023-08-21T11:11:11.222Z,71.95
2023-08-21T11:12:11.218Z,72.80
2023-08-21T11:13:11.213Z,71.95
2023-08-21T11:14:11.167Z,70.36
2023-08-21T11:15:11.150Z,71.53
2023-08-21T11:16:11.146Z,70.68
2023-08-21T11:17:11.141Z,72.23
2023-08-21T11:18:11.301Z,72.65
2023-08-21T11:19:11.071Z,71.42
2023-08-21T11:20:11.061Z,71.42
2023-08-21T11:21:11.034Z,71.44
2023-08-21T11:22:11.235Z,71.18
2023-08-21T11:23:11.004Z,71.77
2023-08-21T11:24:10.995Z,70.56
2023-08-21T11:25:10.960Z,72.18
2023-08-21T11:26:20.525Z,72.39
2023-08-21T11:27:12.990Z,71.66
2023-08-21T11:28:10.935Z,71.83
2023-08-21T11:29:10.905Z,69.89
2023-08-21T11:30:10.874Z,72.39
2023-08-21T11:31:10.891Z,73.48
2023-08-21T11:32:10.862Z,71.29
2023-08-21T11:33:10.893Z,72.44
2023-08-21T11:34:23.103Z,72.51
2023-08-21T11:35:12.790Z,72.64
2023-08-21T11:36:10.796Z,73.16
2023-08-21T11:37:10.767Z,73.03
2023-08-21T11:38:10.735Z,71.33
2023-08-21T11:39:10.718Z,70.59
2023-08-21T11:40:10.715Z,71.77
2023-08-21T11:41:10.711Z,71.86
2023-08-21T11:42:10.662Z,72.82
2023-08-21T11:43:10.649Z,70.05
2023-08-21T11:44:10.627Z,72.30
2023-08-21T11:45:10.959Z,68.88
2023-08-21T11:46:11.794Z,70.88
2023-08-21T11:47:10.580Z,71.53
2023-08-21T11:48:10.649Z,71.01
2023-08-21T11:49:10.562Z,71.71
2023-08-21T11:50:10.557Z,71.62
2023-08-21T11:51:10.504Z,71.59
2023-08-21T11:52:10.506Z,71.99
2023-08-21T11:53:10.465Z,70.06
2023-08-21T11:54:10.446Z,70.00
2023-08-21T11:55:10.468Z,70.72
2023-08-21T11:56:10.415Z,72.17
2023-08-21T11:57:10.388Z,73.18
2023-08-21T11:58:10.384Z,72.54
2023-08-21T11:59:10.385Z,72.69
2023-08-21T12:00:10.329Z,71.59
2023-08-21T12:01:10.400Z,70.49
2023-08-21T12:02:10.302Z,72.68
2023-08-21T12:03:10.312Z,72.51
2023-08-21T12:04:10.323Z,72.74
2023-08-21T12:05:10.252Z,70.35
2023-08-21T12:06:10.226Z,71.49
2023-08-21T12:07:10.204Z,71.14
2023-08-21T12:08:10.201Z,71.67
2023-08-21T12:09:10.204Z,72.08
2023-08-21T12:10:10.159Z,70.39
2023-08-21T12:11:10.148Z,71.52
2023-08-21T12:12:10.112Z,69.66
2023-08-21T12:13:10.131Z,70.75
2023-08-21T12:14:10.111Z,71.92
2023-08-21T12:15:10.057Z,71.61
2023-08-21T12:16:10.062Z,71.39
2023-08-21T12:17:10.021Z,72.64
2023-08-21T12:18:10.064Z,71.28
2023-08-21T12:19:09.991Z,72.07
2023-08-21T12:20:09.965Z,71.56
2023-08-21T12:21:09.981Z,70.22
2023-08-21T12:22:09.938Z,71.33
2023-08-21T12:23:09.941Z,71.87
2023-08-21T12:24:09.917Z,71.80
2023-08-21T12:25:09.883Z,72.06
2023-08-21T12:26:09.866Z,71.78
2023-08-21T12:27:09.874Z,71.01
2023-08-21T12:28:10.868Z,71.78
2023-08-21T12:29:09.807Z,70.69
2023-08-21T12:30:09.829Z,71.09
2023-08-21T12:31:09.807Z,71.49
2023-08-21T12:32:09.788Z,71.72
2023-08-21T12:33:22.736Z,70.51
2023-08-21T12:34:11.720Z,72.06
2023-08-21T12:35:09.740Z,71.68
2023-08-21T12:36:09.678Z,70.63
2023-08-21T12:37:09.698Z,70.22
2023-08-21T12:38:09.648Z,70.45
2023-08-21T12:39:09.624Z,71.40
2023-08-21T12:40:09.622Z,71.24
2023-08-21T12:41:09.617Z,70.24
2023-08-21T12:42:09.599Z,72.62
2023-08-21T12:43:09.553Z,72.01
2023-08-21T12:44:09.550Z,70.99
2023-08-21T12:45:09.521Z,72.68
2023-08-21T12:46:10.803Z,72.20
2023-08-21T12:47:09.498Z,72.07
2023-08-21T12:48:09.676Z,71.34
2023-08-21T12:49:09.459Z,71.68
2023-08-21T12:50:09.431Z,72.68
2023-08-21T12:51:09.448Z,73.27
2023-08-21T12:52:10.625Z,72.75